createdAt,value
2022-08-01T00:00:54.871Z,82.21
2022-08-01T00:03:22.654Z,82.19
2022-08-01T00:05:50.612Z,82.26
2022-08-01T00:08:18.348Z,82.26
2022-08-01T00:10:46.099Z,82.34
2022-08-01T00:13:13.869Z,82.18
2022-08-01T00:15:41.805Z,82.14
2022-08-01T00:18:22.010Z,82.25
2022-08-01T00:20:49.862Z,82.27
2022-08-01T00:23:17.682Z,82.24
2022-08-01T00:25:45.398Z,82.28
2022-08-01T00:28:14.606Z,82.23
2022-08-01T00:30:42.432Z,82.04
2022-08-01T00:33:10.287Z,82.17
2022-08-01T00:35:38.027Z,82.03
2022-08-01T00:38:05.756Z,82.13
2022-08-01T00:40:33.467Z,82.16
2022-08-01T00:43:01.996Z,81.96
2022-08-01T00:45:30.200Z,82.18
2022-08-01T00:47:58.148Z,82.20
2022-08-01T00:50:27.191Z,81.98
2022-08-01T00:52:57.485Z,82.07
2022-08-01T00:55:26.450Z,82.13
2022-08-01T00:58:03.013Z,82.22
2022-08-01T01:00:52.979Z,81.97
2022-08-01T01:03:55.971Z,82.04
2022-08-01T01:06:24.367Z,81.96
2022-08-01T01:09:13.895Z,81.71
2022-08-01T01:12:07.603Z,82.05
2022-08-01T01:14:48.002Z,81.94
2022-08-01T01:17:40.657Z,81.69
2022-08-01T01:20:14.537Z,81.83
2022-08-01T01:22:49.451Z,81.77
2022-08-01T01:25:35.970Z,81.73
2022-08-01T01:28:22.429Z,81.96
2022-08-01T01:30:52.550Z,81.64
2022-08-01T01:33:22.407Z,81.79
2022-08-01T01:35:54.078Z,81.77
2022-08-01T01:38:25.369Z,81.93
2022-08-01T01:40:53.875Z,81.72
2022-08-01T01:43:28.654Z,81.74
2022-08-01T01:46:02.910Z,81.75
2022-08-01T01:48:32.113Z,81.82
2022-08-01T01:51:00.321Z,81.97
2022-08-01T01:53:29.649Z,81.94
2022-08-01T01:55:58.983Z,81.97
2022-08-01T01:58:27.560Z,81.93
2022-08-01T02:00:56.818Z,81.86
2022-08-01T02:03:27.726Z,82.04
2022-08-01T02:05:56.374Z,81.89
2022-08-01T02:08:24.779Z,81.80
2022-08-01T02:11:13.465Z,81.86
2022-08-01T02:13:41.663Z,81.71
2022-08-01T02:16:12.183Z,81.73
2022-08-01T02:18:39.908Z,81.87
2022-08-01T02:21:12.864Z,81.98
2022-08-01T02:23:42.076Z,81.76
2022-08-01T02:26:12.048Z,82.04
2022-08-01T02:28:47.068Z,81.87
2022-08-01T02:31:18.691Z,81.90
2022-08-01T02:33:52.456Z,81.94
2022-08-01T02:36:29.787Z,82.02
2022-08-01T02:39:14.384Z,82.16
2022-08-01T02:41:44.605Z,82.16
2022-08-01T02:44:19.234Z,82.17
2022-08-01T02:46:54.967Z,82.25
2022-08-01T02:49:24.278Z,82.18
2022-08-01T02:51:53.947Z,82.19
2022-08-01T02:54:22.727Z,82.26
2022-08-01T02:56:51.314Z,82.23
2022-08-01T02:59:22.347Z,82.14
2022-08-01T03:01:51.385Z,82.28
2022-08-01T03:04:19.981Z,82.17
2022-08-01T03:06:48.555Z,82.18
2022-08-01T03:09:17.088Z,82.30
2022-08-01T03:11:47.015Z,82.11
2022-08-01T03:14:15.797Z,82.33
2022-08-01T03:16:45.822Z,82.26
2022-08-01T03:19:14.897Z,82.33
2022-08-01T03:21:44.475Z,82.31
2022-08-01T03:24:12.481Z,82.24
2022-08-01T03:26:41.106Z,82.29
2022-08-01T03:29:20.791Z,82.50
2022-08-01T03:31:49.320Z,82.50
2022-08-01T03:34:17.708Z,82.58
2022-08-01T03:36:51.480Z,82.44
2022-08-01T03:39:20.372Z,82.49
2022-08-01T03:41:56.803Z,82.45
2022-08-01T03:44:28.167Z,82.34
2022-08-01T03:47:01.157Z,82.58
2022-08-01T03:49:34.162Z,82.52
2022-08-01T03:52:04.054Z,82.37
2022-08-01T03:54:35.243Z,82.39
2022-08-01T03:57:03.560Z,82.34
2022-08-01T03:59:31.899Z,82.12
2022-08-01T04:02:00.146Z,82.17
2022-08-01T04:04:29.736Z,82.36
2022-08-01T04:06:57.547Z,82.42
2022-08-01T04:09:25.269Z,82.47
2022-08-01T04:11:53.866Z,82.29
2022-08-01T04:14:22.251Z,82.25
2022-08-01T04:16:50.063Z,82.29
2022-08-01T04:19:17.767Z,82.47
2022-08-01T04:21:45.697Z,82.16
2022-08-01T04:24:16.306Z,82.22
2022-08-01T04:26:45.834Z,82.33
2022-08-01T04:29:15.249Z,82.04
2022-08-01T04:31:45.433Z,82.03
2022-08-01T04:34:15.639Z,82.28
2022-08-01T04:36:43.907Z,82.20
2022-08-01T04:39:12.113Z,82.12
2022-08-01T04:41:41.133Z,82.05
2022-08-01T04:44:09.243Z,82.22
2022-08-01T04:46:37.971Z,82.07
2022-08-01T04:49:08.088Z,82.01
2022-08-01T04:51:36.446Z,81.72
2022-08-01T04:54:05.009Z,81.77
2022-08-01T04:56:35.179Z,81.67
2022-08-01T04:59:21.732Z,81.61
2022-08-01T05:01:51.278Z,81.72
2022-08-01T05:04:19.612Z,81.56
2022-08-01T05:06:47.394Z,81.90
2022-08-01T05:09:15.408Z,81.79
2022-08-01T05:11:44.229Z,81.91
2022-08-01T05:14:11.934Z,81.90
2022-08-01T05:16:39.583Z,81.89
2022-08-01T05:19:09.191Z,81.74
2022-08-01T05:21:38.325Z,81.71
2022-08-01T05:24:06.571Z,81.46
2022-08-01T05:26:34.359Z,81.51
2022-08-01T05:29:04.328Z,81.45
2022-08-01T05:31:35.229Z,81.12
2022-08-01T05:34:03.856Z,80.92
2022-08-01T05:36:31.608Z,81.11
2022-08-01T05:38:59.394Z,81.33
2022-08-01T05:41:27.656Z,81.21
2022-08-01T05:43:55.556Z,81.05
2022-08-01T05:46:23.529Z,80.85
2022-08-01T05:48:54.291Z,80.56
2022-08-01T05:51:22.213Z,80.51
2022-08-01T05:53:50.389Z,80.56
2022-08-01T05:56:19.018Z,80.56
2022-08-01T05:58:46.706Z,80.27
2022-08-01T06:01:14.553Z,80.15
2022-08-01T06:03:42.256Z,80.32
2022-08-01T06:06:10.060Z,80.42
2022-08-01T06:08:37.891Z,80.44
2022-08-01T06:11:06.417Z,80.51
2022-08-01T06:13:34.342Z,80.19
2022-08-01T06:16:17.276Z,80.03
2022-08-01T06:18:45.052Z,79.88
2022-08-01T06:21:12.720Z,79.83
2022-08-01T06:23:42.523Z,79.68
2022-08-01T06:26:11.207Z,79.44
2022-08-01T06:28:39.712Z,79.41
2022-08-01T06:31:07.610Z,78.94
2022-08-01T06:33:35.500Z,78.54
2022-08-01T06:36:03.899Z,78.75
2022-08-01T06:38:31.643Z,78.52
2022-08-01T06:40:59.385Z,78.84
2022-08-01T06:43:27.351Z,78.84
2022-08-01T06:45:55.518Z,78.24
2022-08-01T06:48:24.002Z,78.15
2022-08-01T06:51:09.122Z,78.15
2022-08-01T06:53:38.309Z,77.97
2022-08-01T06:56:07.210Z,77.87
2022-08-01T06:58:35.877Z,77.34
2022-08-01T07:01:08.036Z,77.07
2022-08-01T07:03:53.181Z,77.14
2022-08-01T07:06:23.729Z,77.04
2022-08-01T07:08:52.509Z,76.38
2022-08-01T07:11:20.977Z,76.23
2022-08-01T07:13:49.657Z,76.09
2022-08-01T07:16:18.347Z,76.17
2022-08-01T07:18:46.122Z,75.91
2022-08-01T07:21:39.340Z,75.86
2022-08-01T07:24:01.667Z,75.59
2022-08-01T07:26:29.527Z,74.94
2022-08-01T07:28:57.351Z,74.86
2022-08-01T07:31:28.352Z,74.28
2022-08-01T07:33:58.293Z,74.13
2022-08-01T07:36:26.069Z,73.81
2022-08-01T07:38:53.921Z,73.70
2022-08-01T07:41:21.713Z,73.92
2022-08-01T07:44:09.428Z,73.61
2022-08-01T07:46:37.694Z,73.41
2022-08-01T07:49:05.472Z,73.06
2022-08-01T07:51:33.270Z,72.91
2022-08-01T07:54:01.045Z,72.69
2022-08-01T07:56:29.434Z,72.37
2022-08-01T07:58:57.172Z,71.91
2022-08-01T08:01:24.972Z,71.88
2022-08-01T08:03:52.719Z,72.13
2022-08-01T08:06:20.767Z,71.84
2022-08-01T08:08:48.886Z,70.88
2022-08-01T08:11:16.778Z,71.02
2022-08-01T08:13:44.726Z,70.95
2022-08-01T08:16:12.446Z,70.60
2022-08-01T08:18:40.320Z,70.43
2022-08-01T08:21:08.844Z,69.81
2022-08-01T08:23:55.485Z,69.80
2022-08-01T08:26:24.758Z,69.25
2022-08-01T08:28:52.538Z,69.25
2022-08-01T08:31:24.965Z,68.72
2022-08-01T08:33:53.489Z,68.21
2022-08-01T08:36:21.569Z,68.45
2022-08-01T08:38:49.246Z,68.05
2022-08-01T08:41:21.130Z,67.95
2022-08-01T08:43:49.647Z,67.69
2022-08-01T08:46:17.937Z,67.18
2022-08-01T08:48:57.347Z,66.64
2022-08-01T08:51:31.682Z,66.61
2022-08-01T08:53:59.960Z,66.05
2022-08-01T08:56:30.795Z,65.75
2022-08-01T08:58:58.611Z,65.54
2022-08-01T09:01:26.726Z,65.08
2022-08-01T09:03:55.089Z,64.93
2022-08-01T09:06:23.208Z,64.58
2022-08-01T09:08:51.317Z,64.30
2022-08-01T09:11:22.688Z,63.93
2022-08-01T09:14:03.190Z,65.60
2022-08-01T09:16:32.577Z,63.50
2022-08-01T09:19:16.145Z,60.74
2022-08-01T09:22:00.488Z,57.17
2022-08-01T09:24:32.460Z,55.68
2022-08-01T09:27:03.447Z,53.38
2022-08-01T09:29:38.164Z,51.12
2022-08-01T09:32:08.008Z,47.86
2022-08-01T09:34:36.181Z,45.14
2022-08-01T09:37:07.744Z,42.01
2022-08-01T09:39:38.689Z,38.86
2022-08-01T09:42:29.163Z,35.81
2022-08-01T09:44:57.016Z,32.59
2022-08-01T09:47:38.778Z,30.01
2022-08-01T09:50:11.171Z,27.73
2022-08-01T09:52:41.157Z,25.78
2022-08-01T09:55:10.250Z,24.19
2022-08-01T09:57:39.055Z,22.56
2022-08-01T10:00:35.739Z,21.07
2022-08-01T10:03:26.917Z,19.22
2022-08-01T10:05:54.903Z,17.87
2022-08-01T10:08:24.334Z,16.75
2022-08-01T10:11:36.465Z,15.90
2022-08-01T10:14:05.508Z,15.33
2022-08-01T10:16:35.776Z,14.65
2022-08-01T10:19:11.362Z,13.81
2022-08-01T10:21:56.655Z,13.04
2022-08-01T10:24:29.409Z,12.50
2022-08-01T10:27:06.065Z,12.06
2022-08-01T10:29:59.029Z,12.03
2022-08-01T10:32:29.955Z,12.46
2022-08-01T10:34:58.394Z,12.44
2022-08-01T10:37:26.989Z,12.29
2022-08-01T10:40:13.968Z,12.58
2022-08-01T10:42:45.335Z,12.37
2022-08-01T10:45:15.836Z,12.24
2022-08-01T10:48:04.367Z,12.14
2022-08-01T10:50:44.284Z,11.82
2022-08-01T10:53:24.331Z,11.28
2022-08-01T10:56:02.662Z,11.00
2022-08-01T10:58:42.625Z,11.00
2022-08-01T11:01:23.941Z,10.87
2022-08-01T11:04:03.089Z,11.06
2022-08-01T11:06:34.991Z,10.83
2022-08-01T11:09:16.876Z,10.58
2022-08-01T11:12:06.129Z,10.47
2022-08-01T11:14:54.005Z,10.99
2022-08-01T11:17:37.698Z,11.55
2022-08-01T11:20:09.976Z,11.90
2022-08-01T11:22:59.765Z,12.41
2022-08-01T11:26:03.600Z,13.19
2022-08-01T11:28:28.463Z,14.20
2022-08-01T11:31:00.209Z,14.73
2022-08-01T11:33:45.450Z,15.23
2022-08-01T11:36:14.388Z,15.44
2022-08-01T11:39:13.843Z,16.37
2022-08-01T11:41:44.951Z,16.95
2022-08-01T11:44:14.656Z,17.55
2022-08-01T11:47:09.366Z,18.25
2022-08-01T11:49:38.960Z,19.32
2022-08-01T11:52:15.320Z,19.90
2022-08-01T11:54:52.579Z,20.50
2022-08-01T11:57:34.637Z,21.30
2022-08-01T12:00:15.072Z,21.77
2022-08-01T12:02:45.621Z,22.37
2022-08-01T12:05:17.400Z,22.58
2022-08-01T12:07:46.922Z,23.18
2022-08-01T12:10:16.965Z,23.88
2022-08-01T12:12:47.646Z,24.62
2022-08-01T12:15:16.498Z,25.10
2022-08-01T12:17:59.918Z,25.09
2022-08-01T12:20:33.937Z,25.92
2022-08-01T12:23:04.050Z,26.40
2022-08-01T12:25:31.799Z,26.98
2022-08-01T12:28:04.686Z,27.52
2022-08-01T12:30:36.252Z,27.58
2022-08-01T12:33:07.442Z,28.14
2022-08-01T12:35:37.639Z,28.68
2022-08-01T12:38:15.756Z,28.87
2022-08-01T12:40:46.000Z,29.45
2022-08-01T12:43:27.433Z,29.61
2022-08-01T12:45:59.770Z,29.86
2022-08-01T12:48:29.056Z,30.29
2022-08-01T12:51:01.333Z,30.70
2022-08-01T12:53:40.949Z,30.89
2022-08-01T12:56:13.819Z,31.33
2022-08-01T12:58:41.776Z,31.47
2022-08-01T13:01:11.939Z,31.64
2022-08-01T13:03:40.771Z,31.91
2022-08-01T13:06:13.596Z,32.19
2022-08-01T13:08:41.763Z,32.42
2022-08-01T13:11:17.293Z,32.44
2022-08-01T13:13:51.000Z,32.85
2022-08-01T13:16:30.908Z,33.13
2022-08-01T13:19:08.001Z,33.53
2022-08-01T13:21:53.923Z,33.92
2022-08-01T13:24:30.383Z,34.08
2022-08-01T13:27:04.951Z,34.18
2022-08-01T13:29:39.188Z,34.44
2022-08-01T13:32:27.681Z,34.91
2022-08-01T13:35:06.598Z,34.80
2022-08-01T13:37:34.923Z,34.83
2022-08-01T13:40:05.320Z,35.17
2022-08-01T13:42:33.322Z,35.25
2022-08-01T13:45:01.401Z,35.48
2022-08-01T13:47:33.447Z,35.76
2022-08-01T13:50:03.747Z,35.81
2022-08-01T13:52:32.354Z,35.73
2022-08-01T13:55:00.689Z,35.90
2022-08-01T13:57:36.776Z,35.92
2022-08-01T14:00:07.187Z,35.98
2022-08-01T14:02:40.225Z,35.79
2022-08-01T14:05:08.090Z,35.72
2022-08-01T14:07:35.912Z,35.87
2022-08-01T14:10:19.531Z,35.81
2022-08-01T14:12:49.067Z,35.71
2022-08-01T14:15:37.046Z,35.98
2022-08-01T14:18:06.764Z,36.07
2022-08-01T14:20:35.634Z,35.93
2022-08-01T14:23:03.668Z,35.93
2022-08-01T14:26:02.595Z,35.93
2022-08-01T14:28:22.088Z,35.95
2022-08-01T14:30:50.247Z,35.91
2022-08-01T14:33:18.033Z,35.72
2022-08-01T14:36:01.814Z,35.02
2022-08-01T14:38:34.448Z,34.78
2022-08-01T14:41:04.579Z,34.61
2022-08-01T14:43:35.284Z,34.66
2022-08-01T14:46:04.768Z,35.02
2022-08-01T14:48:33.915Z,34.94
2022-08-01T14:51:03.824Z,34.76
2022-08-01T14:53:34.348Z,35.09
2022-08-01T14:56:04.805Z,35.16
2022-08-01T14:58:32.972Z,35.33
2022-08-01T15:01:01.664Z,35.37
2022-08-01T15:03:30.245Z,35.32
2022-08-01T15:05:57.921Z,35.72
2022-08-01T15:08:25.620Z,35.89
2022-08-01T15:10:53.615Z,36.27
2022-08-01T15:13:21.790Z,36.42
2022-08-01T15:15:50.365Z,36.65
2022-08-01T15:18:18.132Z,37.10
2022-08-01T15:20:46.389Z,37.37
2022-08-01T15:23:14.776Z,37.59
2022-08-01T15:25:42.689Z,37.93
2022-08-01T15:28:10.991Z,38.30
2022-08-01T15:30:39.675Z,38.45
2022-08-01T15:33:08.005Z,38.67
2022-08-01T15:35:35.763Z,38.83
2022-08-01T15:38:03.811Z,39.12
2022-08-01T15:40:35.567Z,39.50
2022-08-01T15:43:04.016Z,39.72
2022-08-01T15:45:48.431Z,40.02
2022-08-01T15:48:18.008Z,40.25
2022-08-01T15:50:45.981Z,40.42
2022-08-01T15:53:13.761Z,40.69
2022-08-01T15:55:48.900Z,40.91
2022-08-01T15:58:20.626Z,41.20
2022-08-01T16:00:48.392Z,41.45
2022-08-01T16:03:16.253Z,41.58
2022-08-01T16:05:44.502Z,41.81
2022-08-01T16:08:13.217Z,42.16
2022-08-01T16:10:41.387Z,42.43
2022-08-01T16:13:09.629Z,42.52
2022-08-01T16:15:38.282Z,42.73
2022-08-01T16:18:08.242Z,42.93
2022-08-01T16:20:40.168Z,42.98
2022-08-01T16:23:13.706Z,43.36
2022-08-01T16:25:41.589Z,43.57
2022-08-01T16:28:09.977Z,43.75
2022-08-01T16:31:00.079Z,44.02
2022-08-01T16:33:45.624Z,44.19
2022-08-01T16:36:17.075Z,44.47
2022-08-01T16:38:45.754Z,44.79
2022-08-01T16:41:19.403Z,44.87
2022-08-01T16:43:53.953Z,45.11
2022-08-01T16:46:25.218Z,45.10
2022-08-01T16:48:54.079Z,45.29
2022-08-01T16:51:21.905Z,45.46
2022-08-01T16:53:49.815Z,45.40
2022-08-01T16:56:17.895Z,45.56
2022-08-01T16:58:46.017Z,45.78
2022-08-01T17:02:00.104Z,45.96
2022-08-01T17:04:02.392Z,46.07
2022-08-01T17:06:30.397Z,46.23
2022-08-01T17:08:58.528Z,46.42
2022-08-01T17:11:27.010Z,46.66
2022-08-01T17:13:54.812Z,46.65
2022-08-01T17:16:23.432Z,46.94
2022-08-01T17:18:51.163Z,46.91
2022-08-01T17:21:19.354Z,47.17
2022-08-01T17:23:47.204Z,47.43
2022-08-01T17:26:15.121Z,47.40
2022-08-01T17:28:43.764Z,47.58
2022-08-01T17:31:11.540Z,47.78
2022-08-01T17:33:44.429Z,47.93
2022-08-01T17:36:12.983Z,48.19
2022-08-01T17:38:40.896Z,48.43
2022-08-01T17:41:08.743Z,48.58
2022-08-01T17:43:36.465Z,48.92
2022-08-01T17:46:04.348Z,49.13
2022-08-01T17:48:32.792Z,49.25
2022-08-01T17:51:00.740Z,49.48
2022-08-01T17:53:28.766Z,49.68
2022-08-01T17:55:59.001Z,49.99
2022-08-01T17:58:50.567Z,50.35
2022-08-01T18:01:17.397Z,50.63
2022-08-01T18:03:46.559Z,50.99
2022-08-01T18:06:17.409Z,51.20
2022-08-01T18:08:47.536Z,51.39
2022-08-01T18:11:16.926Z,51.59
2022-08-01T18:13:45.241Z,51.81
2022-08-01T18:16:13.594Z,51.83
2022-08-01T18:18:43.958Z,52.42
2022-08-01T18:21:12.277Z,52.46
2022-08-01T18:23:40.516Z,52.60
2022-08-01T18:26:20.632Z,52.83
2022-08-01T18:28:48.490Z,53.11
2022-08-01T18:31:17.886Z,53.22
2022-08-01T18:33:46.775Z,53.37
2022-08-01T18:36:32.455Z,53.43
2022-08-01T18:39:06.288Z,53.94
2022-08-01T18:41:37.924Z,54.09
2022-08-01T18:44:08.258Z,54.22
2022-08-01T18:46:38.236Z,54.38
2022-08-01T18:49:10.543Z,54.73
2022-08-01T18:51:44.326Z,55.02
2022-08-01T18:54:14.409Z,55.16
2022-08-01T18:56:43.324Z,55.51
2022-08-01T18:59:11.958Z,55.56
2022-08-01T19:01:40.221Z,55.72
2022-08-01T19:04:09.047Z,55.61
2022-08-01T19:06:37.905Z,55.98
2022-08-01T19:09:06.723Z,55.97
2022-08-01T19:11:34.949Z,56.00
2022-08-01T19:14:03.320Z,56.35
2022-08-01T19:16:31.620Z,56.46
2022-08-01T19:19:04.494Z,56.83
2022-08-01T19:21:33.079Z,56.92
2022-08-01T19:24:23.179Z,56.74
2022-08-01T19:26:56.659Z,56.82
2022-08-01T19:29:35.415Z,56.84
2022-08-01T19:32:06.454Z,57.12
2022-08-01T19:34:50.119Z,57.20
2022-08-01T19:37:18.105Z,57.24
2022-08-01T19:39:46.197Z,57.58
2022-08-01T19:42:14.080Z,57.57
2022-08-01T19:44:43.030Z,57.65
2022-08-01T19:47:13.013Z,57.78
2022-08-01T19:49:40.864Z,58.12
2022-08-01T19:52:09.802Z,58.04
2022-08-01T19:54:38.686Z,58.21
2022-08-01T19:57:08.027Z,58.46
2022-08-01T19:59:36.924Z,58.64
2022-08-01T20:02:05.711Z,58.77
2022-08-01T20:04:34.923Z,58.87
2022-08-01T20:07:03.663Z,58.85
2022-08-01T20:09:33.482Z,59.02
2022-08-01T20:12:01.403Z,59.04
2022-08-01T20:14:29.234Z,59.24
2022-08-01T20:16:57.177Z,59.31
2022-08-01T20:19:26.067Z,59.45
2022-08-01T20:22:04.514Z,59.64
2022-08-01T20:24:45.998Z,59.61
2022-08-01T20:27:15.647Z,59.78
2022-08-01T20:29:44.945Z,60.15
2022-08-01T20:32:13.182Z,60.20
2022-08-01T20:34:41.441Z,60.27
2022-08-01T20:37:13.264Z,60.48
2022-08-01T20:39:44.251Z,60.33
2022-08-01T20:42:14.161Z,60.47
2022-08-01T20:44:42.848Z,60.56
2022-08-01T20:47:11.117Z,60.82
2022-08-01T20:49:40.918Z,60.92
2022-08-01T20:52:11.799Z,61.07
2022-08-01T20:54:43.711Z,60.92
2022-08-01T20:57:26.244Z,61.24
2022-08-01T21:00:05.313Z,61.18
2022-08-01T21:03:02.710Z,61.15
2022-08-01T21:05:31.816Z,61.59
2022-08-01T21:08:14.207Z,61.60
2022-08-01T21:10:44.250Z,61.77
2022-08-01T21:13:21.347Z,61.74
2022-08-01T21:16:11.781Z,61.98
2022-08-01T21:21:55.428Z,62.03
2022-08-01T21:24:23.783Z,62.15
2022-08-01T21:26:53.544Z,62.35
2022-08-01T21:29:23.063Z,62.44
2022-08-01T21:32:11.687Z,62.54
2022-08-01T21:34:40.127Z,62.61
2022-08-01T21:37:09.303Z,62.78
2022-08-01T21:39:38.222Z,62.75
2022-08-01T21:42:09.234Z,62.83
2022-08-01T21:44:44.095Z,63.06
2022-08-01T21:47:12.479Z,63.10
2022-08-01T21:49:41.438Z,63.01
2022-08-01T21:52:15.352Z,63.22
2022-08-01T21:54:48.518Z,63.16
2022-08-01T21:57:23.620Z,63.41
2022-08-01T22:00:05.665Z,63.33
2022-08-01T22:02:37.974Z,63.58
2022-08-01T22:05:10.630Z,63.78
2022-08-01T22:07:45.905Z,63.86
2022-08-01T22:10:16.392Z,63.89
2022-08-01T22:12:45.306Z,64.17
2022-08-01T22:15:14.391Z,64.02
2022-08-01T22:17:42.384Z,64.03
2022-08-01T22:20:10.801Z,64.26
2022-08-01T22:22:51.219Z,64.12
2022-08-01T22:25:21.479Z,64.22
2022-08-01T22:28:05.844Z,64.53
2022-08-01T22:30:41.993Z,64.51
2022-08-01T22:33:17.154Z,64.62
2022-08-01T22:35:50.934Z,64.57
2022-08-01T22:38:20.833Z,64.57
2022-08-01T22:41:01.359Z,64.79
2022-08-01T22:43:56.738Z,64.91
2022-08-01T22:46:37.682Z,65.09
2022-08-01T22:49:31.130Z,65.20
2022-08-01T22:52:12.709Z,65.37
2022-08-01T22:54:44.567Z,65.39
2022-08-01T22:57:16.567Z,65.34
2022-08-01T23:00:01.945Z,65.40
2022-08-01T23:02:31.904Z,65.22
2022-08-01T23:05:08.084Z,65.46
2022-08-01T23:07:39.724Z,65.48
2022-08-01T23:10:08.693Z,65.67
2022-08-01T23:12:37.152Z,65.79
2022-08-01T23:15:05.683Z,65.80
2022-08-01T23:17:33.657Z,66.00
2022-08-01T23:20:03.947Z,65.92
2022-08-01T23:22:34.069Z,65.95
2022-08-01T23:25:06.475Z,65.94
2022-08-01T23:27:55.738Z,65.84
2022-08-01T23:30:35.063Z,66.37
2022-08-01T23:33:03.327Z,66.50
2022-08-01T23:35:31.504Z,66.31
2022-08-01T23:38:03.390Z,66.30
2022-08-01T23:40:32.584Z,66.24
2022-08-01T23:43:01.357Z,66.25
2022-08-01T23:46:02.840Z,66.47
2022-08-01T23:48:17.703Z,66.39
2022-08-01T23:50:45.721Z,66.56
2022-08-01T23:53:13.762Z,66.67
2022-08-01T23:55:44.072Z,66.71
2022-08-01T23:58:12.372Z,66.67
